sensor_id;sensor_type;location;lat;lon;timestamp;pressure;altitude;pressure_sealevel;temperature;humidity
72685;BME280;61365;52.162;4.500;2024-03-02T00:01:09;99737.59;;;7.36;100.00
72685;BME280;61365;52.162;4.500;2024-03-02T00:03:38;99736.84;;;7.17;100.00
72685;BME280;61365;52.162;4.500;2024-03-02T00:06:06;99747.31;;;7.14;100.00
72685;BME280;61365;52.162;4.500;2024-03-02T00:08:33;99748.22;;;7.02;100.00
72685;BME280;61365;52.162;4.500;2024-03-02T00:10:59;99757.81;;;7.00;100.00
72685;BME280;61365;52.162;4.500;2024-03-02T00:13:28;99759.50;;;7.03;100.00
72685;BME280;61365;52.162;4.500;2024-03-02T00:15:56;99756.97;;;6.90;100.00
72685;BME280;61365;52.162;4.500;2024-03-02T00:20:56;99762.19;;;6.86;100.00
72685;BME280;61365;52.162;4.500;2024-03-02T00:23:23;99773.53;;;6.75;100.00
72685;BME280;61365;52.162;4.500;2024-03-02T00:25:51;99784.81;;;6.71;100.00
72685;BME280;61365;52.162;4.500;2024-03-02T00:28:22;99792.66;;;6.65;100.00
72685;BME280;61365;52.162;4.500;2024-03-02T00:36:10;99787.44;;;6.68;100.00
72685;BME280;61365;52.162;4.500;2024-03-02T00:38:50;99787.41;;;6.73;100.00
72685;BME280;61365;52.162;4.500;2024-03-02T00:41:21;99791.75;;;6.71;100.00
72685;BME280;61365;52.162;4.500;2024-03-02T00:44:02;99787.41;;;6.70;100.00
72685;BME280;61365;52.162;4.500;2024-03-02T00:46:37;99783.09;;;6.73;100.00
72685;BME280;61365;52.162;4.500;2024-03-02T00:49:05;99791.81;;;6.61;100.00
72685;BME280;61365;52.162;4.500;2024-03-02T00:51:36;99781.34;;;6.66;100.00
72685;BME280;61365;52.162;4.500;2024-03-02T00:54:07;99787.47;;;6.64;100.00
72685;BME280;61365;52.162;4.500;2024-03-02T00:56:34;99786.56;;;6.57;100.00
72685;BME280;61365;52.162;4.500;2024-03-02T00:59:01;99778.75;;;6.66;100.00
72685;BME280;61365;52.162;4.500;2024-03-02T01:01:27;99788.34;;;6.45;100.00
72685;BME280;61365;52.162;4.500;2024-03-02T01:03:53;99790.06;;;6.64;100.00
72685;BME280;61365;52.162;4.500;2024-03-02T01:06:19;99785.72;;;6.56;100.00
72685;BME280;61365;52.162;4.500;2024-03-02T01:08:45;99776.19;;;6.40;100.00
72685;BME280;61365;52.162;4.500;2024-03-02T01:11:16;99768.38;;;6.34;100.00
72685;BME280;61365;52.162;4.500;2024-03-02T01:13:43;99767.53;;;6.27;100.00
72685;BME280;61365;52.162;4.500;2024-03-02T01:16:10;99760.53;;;6.35;100.00
72685;BME280;61365;52.162;4.500;2024-03-02T01:18:36;99777.03;;;6.34;100.00
72685;BME280;61365;52.162;4.500;2024-03-02T01:21:02;99770.97;;;6.35;100.00
72685;BME280;61365;52.162;4.500;2024-03-02T01:23:29;99757.94;;;6.21;100.00
72685;BME280;61365;52.162;4.500;2024-03-02T01:25:55;99769.25;;;6.29;100.00
72685;BME280;61365;52.162;4.500;2024-03-02T01:28:21;99778.78;;;6.35;100.00
72685;BME280;61365;52.162;4.500;2024-03-02T01:30:47;99790.97;;;6.28;100.00
72685;BME280;61365;52.162;4.500;2024-03-02T01:33:15;99790.09;;;6.23;100.00
72685;BME280;61365;52.162;4.500;2024-03-02T01:35:42;99772.72;;;6.22;100.00
72685;BME280;61365;52.162;4.500;2024-03-02T01:38:08;99787.47;;;6.12;100.00
72685;BME280;61365;52.162;4.500;2024-03-02T01:40:34;99811.78;;;6.22;100.00
72685;BME280;61365;52.162;4.500;2024-03-02T01:43:01;99826.56;;;6.15;100.00
72685;BME280;61365;52.162;4.500;2024-03-02T01:45:28;99811.78;;;6.19;100.00
72685;BME280;61365;52.162;4.500;2024-03-02T01:47:54;99798.78;;;6.02;100.00
72685;BME280;61365;52.162;4.500;2024-03-02T01:50:27;99797.91;;;6.08;100.00
72685;BME280;61365;52.162;4.500;2024-03-02T01:52:55;99805.72;;;6.01;100.00
72685;BME280;61365;52.162;4.500;2024-03-02T01:55:22;99799.63;;;6.06;100.00
72685;BME280;61365;52.162;4.500;2024-03-02T01:57:48;99802.25;;;6.15;100.00
72685;BME280;61365;52.162;4.500;2024-03-02T02:00:16;99810.03;;;6.18;100.00
72685;BME280;61365;52.162;4.500;2024-03-02T02:02:43;99804.84;;;6.13;100.00
72685;BME280;61365;52.162;4.500;2024-03-02T02:05:09;99811.78;;;6.11;100.00
72685;BME280;61365;52.162;4.500;2024-03-02T02:07:36;99816.16;;;6.22;100.00
72685;BME280;61365;52.162;4.500;2024-03-02T02:10:02;99823.09;;;6.24;100.00
72685;BME280;61365;52.162;4.500;2024-03-02T02:12:29;99812.66;;;6.13;100.00
72685;BME280;61365;52.162;4.500;2024-03-02T02:14:55;99811.78;;;6.08;100.00
72685;BME280;61365;52.162;4.500;2024-03-02T02:17:21;99805.72;;;6.22;100.00
72685;BME280;61365;52.162;4.500;2024-03-02T02:19:47;99813.53;;;6.25;100.00
72685;BME280;61365;52.162;4.500;2024-03-02T02:22:14;99818.75;;;6.05;100.00
72685;BME280;61365;52.162;4.500;2024-03-02T02:24:43;99815.28;;;6.20;100.00
72685;BME280;61365;52.162;4.500;2024-03-02T02:27:09;99823.09;;;6.29;100.00
72685;BME280;61365;52.162;4.500;2024-03-02T02:29:36;99832.63;;;6.25;100.00
72685;BME280;61365;52.162;4.500;2024-03-02T02:32:02;99819.59;;;6.22;100.00
72685;BME280;61365;52.162;4.500;2024-03-02T02:34:28;99822.22;;;6.18;100.00
72685;BME280;61365;52.162;4.500;2024-03-02T02:36:54;99836.97;;;6.15;100.00
72685;BME280;61365;52.162;4.500;2024-03-02T02:39:21;99828.28;;;6.07;100.00
72685;BME280;61365;52.162;4.500;2024-03-02T02:41:50;99827.44;;;6.10;100.00
72685;BME280;61365;52.162;4.500;2024-03-02T02:44:16;99823.97;;;6.03;100.00
72685;BME280;61365;52.162;4.500;2024-03-02T02:46:43;99824.81;;;6.11;100.00
72685;BME280;61365;52.162;4.500;2024-03-02T02:49:09;99818.75;;;6.22;100.00
72685;BME280;61365;52.162;4.500;2024-03-02T02:51:35;99822.22;;;6.11;100.00
72685;BME280;61365;52.162;4.500;2024-03-02T02:54:01;99814.41;;;6.21;100.00
72685;BME280;61365;52.162;4.500;2024-03-02T02:56:27;99812.69;;;6.15;100.00
72685;BME280;61365;52.162;4.500;2024-03-02T02:58:53;99820.47;;;6.07;100.00
72685;BME280;61365;52.162;4.500;2024-03-02T03:01:19;99817.00;;;6.22;100.00
72685;BME280;61365;52.162;4.500;2024-03-02T03:03:45;99809.19;;;6.13;100.00
72685;BME280;61365;52.162;4.500;2024-03-02T03:06:12;99820.47;;;6.10;100.00
72685;BME280;61365;52.162;4.500;2024-03-02T03:08:38;99824.84;;;6.16;100.00
72685;BME280;61365;52.162;4.500;2024-03-02T03:11:04;99817.88;;;6.24;100.00
72685;BME280;61365;52.162;4.500;2024-03-02T03:13:31;99822.19;;;6.00;100.00
72685;BME280;61365;52.162;4.500;2024-03-02T03:15:57;99825.69;;;6.13;100.00
72685;BME280;61365;52.162;4.500;2024-03-02T03:18:24;99823.09;;;6.12;100.00
72685;BME280;61365;52.162;4.500;2024-03-02T03:20:50;99829.16;;;6.08;100.00
72685;BME280;61365;52.162;4.500;2024-03-02T03:23:16;99826.50;;;5.98;100.00
72685;BME280;61365;52.162;4.500;2024-03-02T03:25:43;99830.00;;;5.99;100.00
72685;BME280;61365;52.162;4.500;2024-03-02T03:28:09;99833.47;;;6.07;100.00
72685;BME280;61365;52.162;4.500;2024-03-02T03:30:38;99836.94;;;5.97;100.00
72685;BME280;61365;52.162;4.500;2024-03-02T03:33:05;99831.75;;;6.01;100.00
72685;BME280;61365;52.162;4.500;2024-03-02T03:35:32;99831.72;;;5.97;100.00
72685;BME280;61365;52.162;4.500;2024-03-02T03:37:58;99834.31;;;5.95;100.00
72685;BME280;61365;52.162;4.500;2024-03-02T03:40:24;99830.84;;;5.98;100.00
72685;BME280;61365;52.162;4.500;2024-03-02T03:42:50;99842.16;;;6.06;100.00
72685;BME280;61365;52.162;4.500;2024-03-02T03:45:17;99836.09;;;6.07;100.00
72685;BME280;61365;52.162;4.500;2024-03-02T03:47:43;99836.97;;;6.20;100.00
72685;BME280;61365;52.162;4.500;2024-03-02T03:50:09;99837.84;;;6.11;100.00
72685;BME280;61365;52.162;4.500;2024-03-02T03:52:35;99830.91;;;6.13;100.00
72685;BME280;61365;52.162;4.500;2024-03-02T03:55:02;99842.19;;;6.22;100.00
72685;BME280;61365;52.162;4.500;2024-03-02T03:57:28;99833.50;;;6.13;100.00
72685;BME280;61365;52.162;4.500;2024-03-02T03:59:54;99842.19;;;6.11;100.00
72685;BME280;61365;52.162;4.500;2024-03-02T04:02:20;99849.13;;;6.09;100.00
72685;BME280;61365;52.162;4.500;2024-03-02T04:04:46;99840.47;;;6.21;100.00
72685;BME280;61365;52.162;4.500;2024-03-02T04:07:12;99856.09;;;6.21;100.00
72685;BME280;61365;52.162;4.500;2024-03-02T04:09:38;99843.94;;;6.27;100.00
72685;BME280;61365;52.162;4.500;2024-03-02T04:12:04;99846.53;;;6.18;100.00
72685;BME280;61365;52.162;4.500;2024-03-02T04:14:30;99851.75;;;6.24;100.00
72685;BME280;61365;52.162;4.500;2024-03-02T04:16:56;99852.59;;;6.15;100.00
72685;BME280;61365;52.162;4.500;2024-03-02T04:19:23;99849.16;;;6.12;100.00
72685;BME280;61365;52.162;4.500;2024-03-02T04:21:49;99856.94;;;6.07;100.00
72685;BME280;61365;52.162;4.500;2024-03-02T04:24:15;99850.88;;;6.07;100.00
72685;BME280;61365;52.162;4.500;2024-03-02T04:26:41;99857.84;;;6.14;100.00
72685;BME280;61365;52.162;4.500;2024-03-02T04:29:07;99853.47;;;6.11;100.00
72685;BME280;61365;52.162;4.500;2024-03-02T04:31:33;99852.59;;;6.00;100.00
72685;BME280;61365;52.162;4.500;2024-03-02T04:33:59;99850.78;;;5.94;100.00
72685;BME280;61365;52.162;4.500;2024-03-02T04:36:25;99858.63;;;5.99;100.00
72685;BME280;61365;52.162;4.500;2024-03-02T04:38:51;99853.47;;;6.07;100.00
72685;BME280;61365;52.162;4.500;2024-03-02T04:41:17;99861.28;;;6.04;100.00
72685;BME280;61365;52.162;4.500;2024-03-02T04:43:43;99862.16;;;6.06;100.00
72685;BME280;61365;52.162;4.500;2024-03-02T04:46:09;99862.09;;;5.92;100.00
72685;BME280;61365;52.162;4.500;2024-03-02T04:48:36;99864.66;;;5.85;100.00
72685;BME280;61365;52.162;4.500;2024-03-02T04:51:02;99860.31;;;5.75;100.00
72685;BME280;61365;52.162;4.500;2024-03-02T04:53:28;99869.88;;;5.79;100.00
72685;BME280;61365;52.162;4.500;2024-03-02T04:55:55;99879.38;;;5.68;100.00
72685;BME280;61365;52.162;4.500;2024-03-02T04:58:44;99879.38;;;5.71;100.00
72685;BME280;61365;52.162;4.500;2024-03-02T05:01:10;99889.78;;;5.69;100.00
72685;BME280;61365;52.162;4.500;2024-03-02T05:03:36;99888.97;;;5.80;100.00
72685;BME280;61365;52.162;4.500;2024-03-02T05:06:02;99891.50;;;5.66;100.00
72685;BME280;61365;52.162;4.500;2024-03-02T05:08:28;99894.09;;;5.61;100.00
72685;BME280;61365;52.162;4.500;2024-03-02T05:10:55;99889.78;;;5.66;100.00
72685;BME280;61365;52.162;4.500;2024-03-02T05:13:41;99884.59;;;5.76;100.00
72685;BME280;61365;52.162;4.500;2024-03-02T05:16:07;99897.66;;;5.85;100.00
72685;BME280;61365;52.162;4.500;2024-03-02T05:18:33;99893.31;;;5.79;100.00
72685;BME280;61365;52.162;4.500;2024-03-02T05:20:59;99894.16;;;5.84;100.00
72685;BME280;61365;52.162;4.500;2024-03-02T05:23:25;99897.63;;;5.83;100.00
72685;BME280;61365;52.162;4.500;2024-03-02T05:25:51;99902.84;;;5.83;100.00
72685;BME280;61365;52.162;4.500;2024-03-02T05:28:17;99902.81;;;5.76;100.00
72685;BME280;61365;52.162;4.500;2024-03-02T05:30:44;99909.78;;;5.78;100.00
72685;BME280;61365;52.162;4.500;2024-03-02T05:33:10;99906.31;;;5.81;100.00
72685;BME280;61365;52.162;4.500;2024-03-02T05:35:36;99905.47;;;5.82;100.00
72685;BME280;61365;52.162;4.500;2024-03-02T05:38:02;99906.31;;;5.78;100.00
72685;BME280;61365;52.162;4.500;2024-03-02T05:40:28;99908.97;;;5.92;100.00
72685;BME280;61365;52.162;4.500;2024-03-02T05:42:54;99910.66;;;5.83;100.00
72685;BME280;61365;52.162;4.500;2024-03-02T05:45:20;99908.97;;;5.95;100.00
72685;BME280;61365;52.162;4.500;2024-03-02T05:47:46;99909.81;;;5.86;100.00
72685;BME280;61365;52.162;4.500;2024-03-02T05:50:12;99910.69;;;5.85;100.00
72685;BME280;61365;52.162;4.500;2024-03-02T05:52:38;99911.53;;;5.84;100.00
72685;BME280;61365;52.162;4.500;2024-03-02T05:55:04;99913.22;;;5.72;100.00
72685;BME280;61365;52.162;4.500;2024-03-02T05:57:31;99910.66;;;5.82;100.00
72685;BME280;61365;52.162;4.500;2024-03-02T06:00:09;99915.81;;;5.66;100.00
72685;BME280;61365;52.162;4.500;2024-03-02T06:02:39;99911.47;;;5.64;100.00
72685;BME280;61365;52.162;4.500;2024-03-02T06:05:06;99911.47;;;5.62;100.00
72685;BME280;61365;52.162;4.500;2024-03-02T06:07:32;99911.34;;;5.39;100.00
72685;BME280;61365;52.162;4.500;2024-03-02T06:09:59;99924.34;;;5.37;100.00
72685;BME280;61365;52.162;4.500;2024-03-02T06:12:25;99920.00;;;5.36;100.00
72685;BME280;61365;52.162;4.500;2024-03-02T06:14:51;99923.50;;;5.38;100.00
72685;BME280;61365;52.162;4.500;2024-03-02T06:17:17;99921.78;;;5.45;100.00
72685;BME280;61365;52.162;4.500;2024-03-02T06:19:44;99925.25;;;5.44;100.00
72685;BME280;61365;52.162;4.500;2024-03-02T06:22:18;99922.63;;;5.43;100.00
72685;BME280;61365;52.162;4.500;2024-03-02T06:24:45;99933.97;;;5.49;100.00
72685;BME280;61365;52.162;4.500;2024-03-02T06:27:11;99928.69;;;5.38;100.00
72685;BME280;61365;52.162;4.500;2024-03-02T06:29:37;99927.88;;;5.49;100.00
72685;BME280;61365;52.162;4.500;2024-03-02T06:32:03;99928.75;;;5.49;100.00
72685;BME280;61365;52.162;4.500;2024-03-02T06:34:29;99934.84;;;5.51;100.00
72685;BME280;61365;52.162;4.500;2024-03-02T06:36:55;99933.06;;;5.46;100.00
72685;BME280;61365;52.162;4.500;2024-03-02T06:39:21;99933.09;;;5.50;100.00
72685;BME280;61365;52.162;4.500;2024-03-02T06:41:47;99935.72;;;5.60;100.00
72685;BME280;61365;52.162;4.500;2024-03-02T06:44:13;99937.44;;;5.56;100.00
72685;BME280;61365;52.162;4.500;2024-03-02T06:46:40;99931.38;;;5.52;100.00
72685;BME280;61365;52.162;4.500;2024-03-02T06:49:06;99933.97;;;5.59;100.00
72685;BME280;61365;52.162;4.500;2024-03-02T06:51:34;99934.91;;;5.70;100.00
72685;BME280;61365;52.162;4.500;2024-03-02T06:54:00;99930.59;;;5.67;100.00
72685;BME280;61365;52.162;4.500;2024-03-02T06:56:26;99930.53;;;5.61;100.00
72685;BME280;61365;52.162;4.500;2024-03-02T06:58:52;99942.69;;;5.59;100.00
72685;BME280;61365;52.162;4.500;2024-03-02T07:01:18;99944.41;;;5.60;100.00
72685;BME280;61365;52.162;4.500;2024-03-02T07:03:46;99942.69;;;5.64;100.00
72685;BME280;61365;52.162;4.500;2024-03-02T07:06:12;99955.69;;;5.61;100.00
72685;BME280;61365;52.162;4.500;2024-03-02T07:08:38;99960.06;;;5.63;100.00
72685;BME280;61365;52.162;4.500;2024-03-02T07:11:04;99951.41;;;5.74;100.00
72685;BME280;61365;52.162;4.500;2024-03-02T07:13:30;99955.72;;;5.67;100.00
72685;BME280;61365;52.162;4.500;2024-03-02T07:15:56;99959.25;;;5.75;100.00
72685;BME280;61365;52.162;4.500;2024-03-02T07:18:28;99960.09;;;5.74;100.00
72685;BME280;61365;52.162;4.500;2024-03-02T07:20:56;99961.88;;;5.84;100.00
72685;BME280;61365;52.162;4.500;2024-03-02T07:23:26;99959.31;;;5.97;100.00
72685;BME280;61365;52.162;4.500;2024-03-02T07:25:53;99963.78;;;6.23;100.00
72685;BME280;61365;52.162;4.500;2024-03-02T07:28:22;99953.28;;;6.03;100.00
72685;BME280;61365;52.162;4.500;2024-03-02T07:31:02;99965.41;;;5.99;100.00
72685;BME280;61365;52.162;4.500;2024-03-02T07:33:30;99966.38;;;6.16;100.00
72685;BME280;61365;52.162;4.500;2024-03-02T07:35:57;99969.78;;;6.01;100.00
72685;BME280;61365;52.162;4.500;2024-03-02T07:38:25;99971.53;;;6.01;100.00
72685;BME280;61365;52.162;4.500;2024-03-02T07:40:51;99961.09;;;6.07;100.00
72685;BME280;61365;52.162;4.500;2024-03-02T07:43:19;99972.47;;;6.17;100.00
72685;BME280;61365;52.162;4.500;2024-03-02T07:45:45;99968.94;;;6.13;100.00
72685;BME280;61365;52.162;4.500;2024-03-02T07:48:12;99976.78;;;6.20;100.00
72685;BME280;61365;52.162;4.500;2024-03-02T07:50:38;99977.72;;;6.45;100.00
72685;BME280;61365;52.162;4.500;2024-03-02T07:53:05;99975.16;;;6.87;100.00
72685;BME280;61365;52.162;4.500;2024-03-02T07:55:31;99970.81;;;6.64;100.00
72685;BME280;61365;52.162;4.500;2024-03-02T07:57:57;99966.44;;;6.51;100.00
72685;BME280;61365;52.162;4.500;2024-03-02T08:00:24;99960.38;;;7.03;100.00
72685;BME280;61365;52.162;4.500;2024-03-02T08:02:51;99965.59;;;7.18;100.00
72685;BME280;61365;52.162;4.500;2024-03-02T08:05:18;99959.44;;;7.43;100.00
72685;BME280;61365;52.162;4.500;2024-03-02T08:07:47;99955.88;;;7.70;100.00
72685;BME280;61365;52.162;4.500;2024-03-02T08:10:13;99955.09;;;7.51;100.00
72685;BME280;61365;52.162;4.500;2024-03-02T08:12:39;99968.13;;;7.59;100.00
72685;BME280;61365;52.162;4.500;2024-03-02T08:15:06;99946.38;;;7.52;100.00
72685;BME280;61365;52.162;4.500;2024-03-02T08:17:32;99955.06;;;7.62;100.00
72685;BME280;61365;52.162;4.500;2024-03-02T08:19:58;99955.97;;;7.47;100.00
72685;BME280;61365;52.162;4.500;2024-03-02T08:22:24;99953.34;;;7.56;100.00
72685;BME280;61365;52.162;4.500;2024-03-02T08:24:54;99958.44;;;7.89;100.00
72685;BME280;61365;52.162;4.500;2024-03-02T08:27:20;99961.94;;;7.83;100.00
72685;BME280;61365;52.162;4.500;2024-03-02T08:29:46;99961.78;;;8.17;100.00
72685;BME280;61365;52.162;4.500;2024-03-02T08:32:12;99962.81;;;7.82;100.00
72685;BME280;61365;52.162;4.500;2024-03-02T08:34:38;99959.19;;;8.13;100.00
72685;BME280;61365;52.162;4.500;2024-03-02T08:37:04;99963.75;;;7.59;100.00
72685;BME280;61365;52.162;4.500;2024-03-02T08:39:31;99962.00;;;7.69;100.00
72685;BME280;61365;52.162;4.500;2024-03-02T08:41:57;99956.69;;;7.92;100.00
72685;BME280;61365;52.162;4.500;2024-03-02T08:44:23;99962.84;;;7.73;100.00
72685;BME280;61365;52.162;4.500;2024-03-02T08:46:50;99957.56;;;7.90;100.00
72685;BME280;61365;52.162;4.500;2024-03-02T08:49:16;99969.75;;;7.83;100.00
72685;BME280;61365;52.162;4.500;2024-03-02T08:51:42;99969.81;;;7.71;100.00
72685;BME280;61365;52.162;4.500;2024-03-02T08:54:08;99964.22;;;8.47;100.00
72685;BME280;61365;52.162;4.500;2024-03-02T08:56:34;99960.69;;;8.57;100.00
72685;BME280;61365;52.162;4.500;2024-03-02T08:59:01;99964.16;;;8.61;100.00
72685;BME280;61365;52.162;4.500;2024-03-02T09:01:27;99958.91;;;8.68;100.00
72685;BME280;61365;52.162;4.500;2024-03-02T09:03:54;99969.53;;;8.37;100.00
72685;BME280;61365;52.162;4.500;2024-03-02T09:06:20;99965.94;;;8.57;100.00
72685;BME280;61365;52.162;4.500;2024-03-02T09:08:47;99961.72;;;8.30;100.00
72685;BME280;61365;52.162;4.500;2024-03-02T09:11:15;99969.09;;;9.01;100.00
72685;BME280;61365;52.162;4.500;2024-03-02T09:13:41;99964.69;;;9.05;100.00
72685;BME280;61365;52.162;4.500;2024-03-02T09:16:08;99962.16;;;8.94;100.00
72685;BME280;61365;52.162;4.500;2024-03-02T09:18:36;99969.03;;;9.09;100.00
72685;BME280;61365;52.162;4.500;2024-03-02T09:21:03;99973.16;;;9.35;100.00
72685;BME280;61365;52.162;4.500;2024-03-02T09:23:30;99961.19;;;9.07;100.00
72685;BME280;61365;52.162;4.500;2024-03-02T09:25:56;99962.22;;;8.84;100.00
72685;BME280;61365;52.162;4.500;2024-03-02T09:28:22;99967.31;;;9.05;100.00
72685;BME280;61365;52.162;4.500;2024-03-02T09:30:48;99968.19;;;9.04;100.00
72685;BME280;61365;52.162;4.500;2024-03-02T09:33:14;99981.38;;;8.90;100.00
72685;BME280;61365;52.162;4.500;2024-03-02T09:35:40;99976.19;;;8.83;100.00
72685;BME280;61365;52.162;4.500;2024-03-02T09:38:06;99981.53;;;8.71;100.00
72685;BME280;61365;52.162;4.500;2024-03-02T09:40:32;99981.44;;;8.82;100.00
72685;BME280;61365;52.162;4.500;2024-03-02T09:42:59;99980.31;;;9.14;100.00
72685;BME280;61365;52.162;4.500;2024-03-02T09:45:26;99975.06;;;9.15;100.00
72685;BME280;61365;52.162;4.500;2024-03-02T09:47:52;99977.59;;;9.25;100.00
72685;BME280;61365;52.162;4.500;2024-03-02T09:50:18;99985.63;;;9.05;100.00
72685;BME280;61365;52.162;4.500;2024-03-02T09:52:47;99978.25;;;9.47;100.00
72685;BME280;61365;52.162;4.500;2024-03-02T09:55:15;99979.16;;;9.44;100.00
72685;BME280;61365;52.162;4.500;2024-03-02T09:57:41;99977.31;;;9.56;100.00
72685;BME280;61365;52.162;4.500;2024-03-02T10:00:08;99980.25;;;9.22;100.00
72685;BME280;61365;52.162;4.500;2024-03-02T10:02:34;99975.56;;;9.53;100.00
72685;BME280;61365;52.162;4.500;2024-03-02T10:05:00;99977.94;;;9.76;100.00
72685;BME280;61365;52.162;4.500;2024-03-02T10:07:29;99983.06;;;9.87;100.00
72685;BME280;61365;52.162;4.500;2024-03-02T10:09:55;99988.69;;;9.50;100.00
72685;BME280;61365;52.162;4.500;2024-03-02T10:12:22;99982.63;;;9.46;100.00
72685;BME280;61365;52.162;4.500;2024-03-02T10:14:48;99979.16;;;9.44;100.00
72685;BME280;61365;52.162;4.500;2024-03-02T10:17:17;99982.47;;;9.60;100.00
72685;BME280;61365;52.162;4.500;2024-03-02T10:19:43;99982.13;;;9.90;100.00
72685;BME280;61365;52.162;4.500;2024-03-02T10:22:10;99978.25;;;10.22;100.00
72685;BME280;61365;52.162;4.500;2024-03-02T10:24:42;99978.66;;;9.89;100.00
72685;BME280;61365;52.162;4.500;2024-03-02T10:27:11;99975.00;;;10.04;100.00
72685;BME280;61365;52.162;4.500;2024-03-02T10:29:47;99969.31;;;10.35;100.00
72685;BME280;61365;52.162;4.500;2024-03-02T10:32:14;99956.53;;;10.11;100.00
72685;BME280;61365;52.162;4.500;2024-03-02T10:34:41;99949.09;;;9.80;100.00
72685;BME280;61365;52.162;4.500;2024-03-02T10:37:12;99951.69;;;9.81;100.00
72685;BME280;61365;52.162;4.500;2024-03-02T10:39:39;99947.03;;;10.03;100.00
72685;BME280;61365;52.162;4.500;2024-03-02T10:42:06;99948.66;;;10.11;100.00
72685;BME280;61365;52.162;4.500;2024-03-02T10:44:33;99967.16;;;10.00;100.00
72685;BME280;61365;52.162;4.500;2024-03-02T10:47:03;99947.84;;;10.07;100.00
72685;BME280;61365;52.162;4.500;2024-03-02T10:49:30;99949.03;;;9.84;100.00
72685;BME280;61365;52.162;4.500;2024-03-02T10:51:58;99948.13;;;9.85;100.00
72685;BME280;61365;52.162;4.500;2024-03-02T10:54:24;99941.50;;;9.58;100.00
72685;BME280;61365;52.162;4.500;2024-03-02T10:57:01;99945.88;;;9.54;100.00
72685;BME280;61365;52.162;4.500;2024-03-02T10:59:37;99943.19;;;9.60;100.00
72685;BME280;61365;52.162;4.500;2024-03-02T11:02:08;99945.44;;;9.91;100.00
72685;BME280;61365;52.162;4.500;2024-03-02T11:04:38;99936.41;;;10.14;100.00
72685;BME280;61365;52.162;4.500;2024-03-02T11:07:08;99937.38;;;10.07;100.00
72685;BME280;61365;52.162;4.500;2024-03-02T11:09:40;99944.81;;;10.36;100.00
72685;BME280;61365;52.162;4.500;2024-03-02T11:12:15;99939.31;;;9.93;100.00
72685;BME280;61365;52.162;4.500;2024-03-02T11:14:45;99940.81;;;10.11;100.00
72685;BME280;61365;52.162;4.500;2024-03-02T11:17:13;99935.38;;;10.26;100.00
72685;BME280;61365;52.162;4.500;2024-03-02T11:19:43;99939.56;;;10.36;100.00
72685;BME280;61365;52.162;4.500;2024-03-02T11:22:11;99932.91;;;10.14;100.00
72685;BME280;61365;52.162;4.500;2024-03-02T11:24:37;99940.69;;;10.20;100.00
72685;BME280;61365;52.162;4.500;2024-03-02T11:27:04;99939.88;;;10.16;100.00
72685;BME280;61365;52.162;4.500;2024-03-02T11:32:02;99940.88;;;10.06;100.00
72685;BME280;61365;52.162;4.500;2024-03-02T11:34:33;99931.34;;;10.00;100.00
72685;BME280;61365;52.162;4.500;2024-03-02T11:37:01;99932.03;;;10.15;100.00
72685;BME280;61365;52.162;4.500;2024-03-02T11:39:28;99922.09;;;10.35;100.00
72685;BME280;61365;52.162;4.500;2024-03-02T11:41:57;99930.97;;;10.27;100.00
72685;BME280;61365;52.162;4.500;2024-03-02T11:44:27;99931.91;;;10.24;100.00
72685;BME280;61365;52.162;4.500;2024-03-02T11:47:00;99924.94;;;10.23;100.00
72685;BME280;61365;52.162;4.500;2024-03-02T11:52:11;99925.00;;;10.17;100.00
72685;BME280;61365;52.162;4.500;2024-03-02T11:54:40;99917.19;;;10.14;100.00
72685;BME280;61365;52.162;4.500;2024-03-02T11:57:13;99911.00;;;10.18;100.00
72685;BME280;61365;52.162;4.500;2024-03-02T11:59:41;99912.47;;;10.37;100.00
72685;BME280;61365;52.162;4.500;2024-03-02T12:02:12;99912.81;;;10.13;100.00
72685;BME280;61365;52.162;4.500;2024-03-02T12:04:46;99918.84;;;10.21;100.00
72685;BME280;61365;52.162;4.500;2024-03-02T12:07:23;99900.63;;;10.10;100.00
72685;BME280;61365;52.162;4.500;2024-03-02T12:09:49;99903.78;;;10.34;100.00
72685;BME280;61365;52.162;4.500;2024-03-02T12:12:25;99897.94;;;10.16;100.00
72685;BME280;61365;52.162;4.500;2024-03-02T12:14:52;99895.19;;;10.22;100.00
72685;BME280;61365;52.162;4.500;2024-03-02T12:17:21;99888.06;;;10.34;100.00
72685;BME280;61365;52.162;4.500;2024-03-02T12:19:48;99891.63;;;10.28;100.00
72685;BME280;61365;52.162;4.500;2024-03-02T12:22:15;99896.75;;;10.34;100.00
72685;BME280;61365;52.162;4.500;2024-03-02T12:24:41;99879.34;;;10.32;100.00
72685;BME280;61365;52.162;4.500;2024-03-02T12:27:11;99878.34;;;10.41;100.00
72685;BME280;61365;52.162;4.500;2024-03-02T12:29:39;99870.63;;;10.31;100.00
72685;BME280;61365;52.162;4.500;2024-03-02T12:32:05;99867.03;;;10.35;100.00
72685;BME280;61365;52.162;4.500;2024-03-02T12:34:32;99864.41;;;10.39;100.00
72685;BME280;61365;52.162;4.500;2024-03-02T12:36:58;99868.75;;;10.38;100.00
72685;BME280;61365;52.162;4.500;2024-03-02T12:39:24;99861.97;;;10.25;100.00
72685;BME280;61365;52.162;4.500;2024-03-02T12:41:51;99874.28;;;10.19;100.00
72685;BME280;61365;52.162;4.500;2024-03-02T12:44:19;99875.19;;;10.17;100.00
72685;BME280;61365;52.162;4.500;2024-03-02T12:46:46;99870.63;;;10.30;100.00
72685;BME280;61365;52.162;4.500;2024-03-02T12:49:13;99871.09;;;10.57;100.00
72685;BME280;61365;52.162;4.500;2024-03-02T12:51:44;99864.06;;;10.59;100.00
72685;BME280;61365;52.162;4.500;2024-03-02T12:54:12;99871.09;;;10.58;100.00
72685;BME280;61365;52.162;4.500;2024-03-02T12:56:40;99869.28;;;10.62;100.00
72685;BME280;61365;52.162;4.500;2024-03-02T12:59:21;99874.25;;;10.77;100.00
72685;BME280;61365;52.162;4.500;2024-03-02T13:01:52;99867.97;;;10.86;100.00
72685;BME280;61365;52.162;4.500;2024-03-02T13:04:26;99864.19;;;11.01;100.00
72685;BME280;61365;52.162;4.500;2024-03-02T13:06:54;99850.97;;;11.09;100.00
72685;BME280;61365;52.162;4.500;2024-03-02T13:09:24;99843.41;;;10.90;100.00
72685;BME280;61365;52.162;4.500;2024-03-02T13:11:50;99837.00;;;11.07;100.00